createdAt,value
2023-04-14T00:00:32.957Z,2.50
2023-04-14T00:03:01.240Z,3.15
2023-04-14T00:05:31.340Z,2.75
2023-04-14T00:07:59.246Z,2.67
2023-04-14T00:10:27.514Z,2.40
2023-04-14T00:12:56.394Z,2.67
2023-04-14T00:15:24.388Z,2.92
2023-04-14T00:17:53.107Z,2.33
2023-04-14T00:20:20.991Z,2.60
2023-04-14T00:22:50.246Z,2.30
2023-04-14T00:25:18.231Z,2.40
2023-04-14T00:27:45.897Z,2.35
2023-04-14T00:30:14.025Z,2.80
2023-04-14T00:32:41.738Z,2.53
2023-04-14T00:35:09.879Z,3.50
2023-04-14T00:37:37.616Z,2.40
2023-04-14T00:40:10.228Z,2.00
2023-04-14T00:42:43.928Z,2.58
2023-04-14T00:45:12.266Z,2.10
2023-04-14T00:47:42.065Z,2.25
2023-04-14T00:50:11.837Z,2.45
2023-04-14T00:52:40.259Z,2.13
2023-04-14T00:55:10.701Z,2.30
2023-04-14T00:57:39.103Z,2.25
2023-04-14T01:00:08.006Z,2.25
2023-04-14T01:02:35.882Z,1.98
2023-04-14T01:05:04.005Z,2.03
2023-04-14T01:07:31.940Z,2.10
2023-04-14T01:10:00.950Z,2.50
2023-04-14T01:12:45.467Z,2.17
2023-04-14T01:15:22.653Z,2.10
2023-04-14T01:17:58.644Z,2.55
2023-04-14T01:20:32.166Z,2.10
2023-04-14T01:23:05.662Z,2.17
2023-04-14T01:25:55.444Z,2.50
2023-04-14T01:28:58.794Z,3.00
2023-04-14T01:31:30.762Z,2.40
2023-04-14T01:34:04.240Z,2.33
2023-04-14T01:36:39.175Z,2.33
2023-04-14T01:39:10.862Z,3.25
2023-04-14T01:41:43.189Z,2.50
2023-04-14T01:44:12.369Z,2.35
2023-04-14T01:46:44.198Z,1.92
2023-04-14T01:49:13.011Z,2.30
2023-04-14T01:51:43.750Z,2.50
2023-04-14T01:54:15.583Z,2.40
2023-04-14T01:56:45.621Z,1.90
2023-04-14T01:59:15.582Z,2.25
2023-04-14T02:01:46.977Z,2.70
2023-04-14T02:04:16.528Z,2.85
2023-04-14T02:06:44.889Z,2.40
2023-04-14T02:09:13.687Z,2.17
2023-04-14T02:11:42.374Z,2.85
2023-04-14T02:14:11.939Z,3.25
2023-04-14T02:16:40.976Z,1.95
2023-04-14T02:19:10.449Z,2.30
2023-04-14T02:21:39.912Z,2.90
2023-04-14T02:24:08.320Z,2.60
2023-04-14T02:26:41.247Z,2.67
2023-04-14T02:29:13.133Z,2.38
2023-04-14T02:31:44.594Z,2.88
2023-04-14T02:34:18.298Z,3.17
2023-04-14T02:36:49.301Z,2.90
2023-04-14T02:39:21.010Z,2.75
2023-04-14T02:41:53.268Z,2.92
2023-04-14T02:44:24.304Z,2.30
2023-04-14T02:46:58.340Z,2.30
2023-04-14T02:49:27.996Z,3.60
2023-04-14T02:51:58.264Z,3.70
2023-04-14T02:54:26.834Z,2.80
2023-04-14T02:56:56.928Z,2.75
2023-04-14T02:59:27.387Z,2.45
2023-04-14T03:01:55.964Z,2.50
2023-04-14T03:04:25.638Z,2.35
2023-04-14T03:06:56.831Z,3.10
2023-04-14T03:09:26.495Z,2.75
2023-04-14T03:11:54.950Z,3.00
2023-04-14T03:14:23.332Z,2.10
2023-04-14T03:16:53.604Z,2.60
2023-04-14T03:19:23.207Z,3.30
2023-04-14T03:21:51.683Z,2.90
2023-04-14T03:24:24.462Z,2.75
2023-04-14T03:26:57.217Z,2.53
2023-04-14T03:29:28.006Z,2.40
2023-04-14T03:31:57.515Z,2.38
2023-04-14T03:34:29.193Z,2.08
2023-04-14T03:36:58.492Z,3.05
2023-04-14T03:39:31.104Z,2.83
2023-04-14T03:42:02.045Z,3.42
2023-04-14T03:44:35.588Z,2.60
2023-04-14T03:47:04.112Z,2.95
2023-04-14T03:49:36.331Z,2.60
2023-04-14T03:52:07.726Z,2.70
2023-04-14T03:54:40.446Z,3.35
2023-04-14T03:57:10.645Z,3.10
2023-04-14T03:59:40.648Z,3.00
2023-04-14T04:02:09.788Z,2.17
2023-04-14T04:04:38.281Z,2.30
2023-04-14T04:07:10.398Z,2.45
2023-04-14T04:09:41.247Z,2.50
2023-04-14T04:12:10.506Z,2.42
2023-04-14T04:14:40.469Z,3.10
2023-04-14T04:17:10.071Z,2.38
2023-04-14T04:19:39.721Z,3.28
2023-04-14T04:22:09.161Z,3.10
2023-04-14T04:24:40.705Z,2.53
2023-04-14T04:27:20.404Z,3.10
2023-04-14T04:29:54.847Z,2.58
2023-04-14T04:32:23.556Z,3.10
2023-04-14T04:34:51.934Z,4.70
2023-04-14T04:37:20.443Z,3.53
2023-04-14T04:39:50.016Z,4.10
2023-04-14T04:42:17.774Z,2.65
2023-04-14T04:44:46.123Z,2.72
2023-04-14T04:47:14.367Z,3.20
2023-04-14T04:49:42.402Z,2.95
2023-04-14T04:52:10.390Z,2.90
2023-04-14T04:54:38.491Z,3.35
2023-04-14T04:57:08.673Z,3.05
2023-04-14T04:59:38.094Z,2.80
2023-04-14T05:02:06.398Z,3.30
2023-04-14T05:04:34.258Z,3.10
2023-04-14T05:07:01.962Z,2.95
2023-04-14T05:09:29.705Z,3.25
2023-04-14T05:11:58.159Z,3.30
2023-04-14T05:14:27.678Z,3.20
2023-04-14T05:16:55.584Z,3.15
2023-04-14T05:19:23.241Z,3.58
2023-04-14T05:21:51.143Z,3.78
2023-04-14T05:24:18.901Z,2.80
2023-04-14T05:27:01.648Z,3.00
2023-04-14T05:29:35.771Z,3.13
2023-04-14T05:32:03.475Z,3.63
2023-04-14T05:34:31.222Z,3.20
2023-04-14T05:36:58.996Z,3.20
2023-04-14T05:39:27.102Z,3.53
2023-04-14T05:41:54.869Z,3.05
2023-04-14T05:44:23.888Z,3.25
2023-04-14T05:46:53.034Z,2.83
2023-04-14T05:49:20.656Z,3.10
2023-04-14T05:51:48.535Z,4.00
2023-04-14T05:54:16.545Z,3.72
2023-04-14T05:56:44.354Z,3.70
2023-04-14T05:59:12.195Z,3.67
2023-04-14T06:01:39.935Z,4.07
2023-04-14T06:04:09.507Z,4.78
2023-04-14T06:06:38.173Z,4.47
2023-04-14T06:09:05.890Z,5.57
2023-04-14T06:11:33.603Z,4.60
2023-04-14T06:14:02.978Z,4.50
2023-04-14T06:16:30.999Z,4.80
2023-04-14T06:18:58.896Z,3.65
2023-04-14T06:21:28.054Z,4.13
2023-04-14T06:23:56.008Z,3.50
2023-04-14T06:26:23.754Z,3.30
2023-04-14T06:28:52.103Z,3.10
2023-04-14T06:31:19.881Z,4.60
2023-04-14T06:33:47.817Z,3.50
2023-04-14T06:36:18.092Z,3.40
2023-04-14T06:38:47.095Z,3.60
2023-04-14T06:41:14.828Z,3.55
2023-04-14T06:43:42.840Z,3.20
2023-04-14T06:46:10.710Z,3.65
2023-04-14T06:48:38.597Z,4.07
2023-04-14T06:51:07.629Z,2.90
2023-04-14T06:53:35.478Z,3.30
2023-04-14T06:56:05.897Z,3.70
2023-04-14T06:58:33.696Z,3.35
2023-04-14T07:01:02.920Z,3.08
2023-04-14T07:03:31.812Z,2.75
2023-04-14T07:06:08.411Z,3.38
2023-04-14T07:08:36.287Z,3.03
2023-04-14T07:11:07.040Z,2.90
2023-04-14T07:13:34.773Z,3.72
2023-04-14T07:16:03.354Z,3.45
2023-04-14T07:18:31.720Z,3.67
2023-04-14T07:21:00.002Z,3.85
2023-04-14T07:23:28.349Z,3.88
2023-04-14T07:25:57.834Z,5.07
2023-04-14T07:28:29.571Z,3.75
2023-04-14T07:30:57.510Z,3.65
2023-04-14T07:33:26.993Z,3.35
2023-04-14T07:36:02.926Z,4.03
2023-04-14T07:38:32.302Z,2.50
2023-04-14T07:41:00.300Z,3.20
2023-04-14T07:43:34.788Z,2.77
2023-04-14T07:46:04.410Z,2.90
2023-04-14T07:48:32.831Z,3.43
2023-04-14T07:51:00.538Z,2.73
2023-04-14T07:53:28.404Z,3.00
2023-04-14T07:55:56.103Z,2.73
2023-04-14T07:58:26.173Z,2.60
2023-04-14T08:00:56.425Z,3.00
2023-04-14T08:03:24.385Z,2.73
2023-04-14T08:05:52.532Z,2.90
2023-04-14T08:08:20.648Z,2.50
2023-04-14T08:10:48.395Z,3.33
2023-04-14T08:13:16.254Z,3.80
2023-04-14T08:15:44.280Z,2.43
2023-04-14T08:18:13.410Z,2.70
2023-04-14T08:20:41.461Z,2.93
2023-04-14T08:23:09.222Z,3.17
2023-04-14T08:25:36.917Z,3.23
2023-04-14T08:28:05.038Z,3.07
2023-04-14T08:30:32.725Z,2.73
2023-04-14T08:33:00.482Z,2.90
2023-04-14T08:35:36.880Z,2.53
2023-04-14T08:38:09.155Z,1.77
2023-04-14T08:40:39.309Z,1.90
2023-04-14T08:43:07.578Z,1.80
2023-04-14T08:45:36.131Z,1.33
2023-04-14T08:48:05.630Z,1.50
2023-04-14T08:50:45.427Z,1.70
2023-04-14T08:53:14.408Z,2.13
2023-04-14T08:55:43.624Z,2.43
2023-04-14T08:58:11.626Z,2.00
2023-04-14T09:00:41.175Z,1.80
2023-04-14T09:03:09.632Z,1.97
2023-04-14T09:05:39.201Z,1.90
2023-04-14T09:08:07.998Z,2.43
2023-04-14T09:10:37.104Z,2.47
2023-04-14T09:13:06.587Z,2.00
2023-04-14T09:15:34.471Z,1.67
2023-04-14T09:18:02.807Z,2.10
2023-04-14T09:20:37.434Z,1.53
2023-04-14T09:23:09.328Z,1.70
2023-04-14T09:25:38.892Z,1.53
2023-04-14T09:28:06.792Z,1.87
2023-04-14T09:30:34.638Z,2.30
2023-04-14T09:33:06.066Z,1.67
2023-04-14T09:35:45.895Z,1.80
2023-04-14T09:38:15.324Z,1.77
2023-04-14T09:40:44.899Z,1.70
2023-04-14T09:43:33.623Z,1.90
2023-04-14T09:46:06.639Z,1.60
2023-04-14T09:48:34.869Z,1.90
2023-04-14T09:51:06.688Z,1.87
2023-04-14T09:53:36.656Z,1.80
2023-04-14T09:56:06.877Z,1.90
2023-04-14T09:58:37.158Z,2.13
2023-04-14T10:01:05.920Z,2.13
2023-04-14T10:03:36.134Z,1.87
2023-04-14T10:06:07.349Z,1.90
2023-04-14T10:08:38.136Z,1.80
2023-04-14T10:11:16.539Z,1.93
2023-04-14T10:13:44.292Z,2.20
2023-04-14T10:16:12.072Z,2.70
2023-04-14T10:18:39.930Z,2.20
2023-04-14T10:21:09.040Z,2.07
2023-04-14T10:23:41.180Z,1.70
2023-04-14T10:26:10.069Z,2.30
2023-04-14T10:28:40.796Z,1.97
2023-04-14T10:31:13.701Z,1.40
2023-04-14T10:33:42.172Z,2.00
2023-04-14T10:36:10.738Z,1.77
2023-04-14T10:38:42.305Z,1.73
2023-04-14T10:41:10.689Z,1.80
2023-04-14T10:43:39.637Z,2.20
2023-04-14T10:46:09.632Z,2.00
2023-04-14T10:48:39.563Z,1.90
2023-04-14T10:51:09.606Z,2.50
2023-04-14T10:53:40.640Z,2.00
2023-04-14T10:56:08.492Z,2.23
2023-04-14T10:58:37.785Z,1.67
2023-04-14T11:01:29.978Z,1.87
2023-04-14T11:03:58.475Z,1.80
2023-04-14T11:06:52.121Z,1.63
2023-04-14T11:09:34.400Z,1.60
2023-04-14T11:12:26.027Z,1.90
2023-04-14T11:14:57.618Z,2.03
2023-04-14T11:17:30.249Z,1.90
2023-04-14T11:19:58.578Z,2.00
2023-04-14T11:22:39.542Z,1.60
2023-04-14T11:25:09.664Z,1.40
2023-04-14T11:27:37.397Z,2.00
2023-04-14T11:30:07.238Z,1.63
2023-04-14T11:32:46.623Z,1.80
2023-04-14T11:35:14.826Z,1.70
2023-04-14T11:37:42.735Z,1.80
2023-04-14T11:40:13.558Z,1.63
2023-04-14T11:42:45.221Z,1.90
2023-04-14T11:45:15.300Z,1.43
2023-04-14T11:47:48.777Z,1.90
2023-04-14T11:50:18.113Z,1.70
2023-04-14T11:52:47.303Z,1.77
2023-04-14T11:55:16.452Z,2.00
2023-04-14T11:57:45.822Z,1.87
2023-04-14T12:00:17.446Z,1.53
2023-04-14T12:02:45.766Z,1.90
2023-04-14T12:05:14.886Z,1.23
2023-04-14T12:07:43.856Z,2.10
2023-04-14T12:10:12.630Z,1.47
2023-04-14T12:12:42.603Z,1.90
2023-04-14T12:15:11.499Z,1.60
2023-04-14T12:17:39.451Z,1.83
2023-04-14T12:20:14.734Z,1.37
2023-04-14T12:22:42.769Z,1.90
2023-04-14T12:25:13.735Z,1.60
2023-04-14T12:27:42.904Z,1.67
2023-04-14T12:30:12.554Z,1.70
2023-04-14T12:32:41.533Z,1.63
2023-04-14T12:35:10.023Z,1.60
2023-04-14T12:37:38.815Z,1.60
2023-04-14T12:40:08.066Z,1.50
2023-04-14T12:42:48.400Z,1.47
2023-04-14T12:45:17.163Z,1.60
2023-04-14T12:47:54.110Z,1.80
2023-04-14T12:50:28.318Z,1.80
2023-04-14T12:52:57.635Z,2.00
2023-04-14T12:55:27.696Z,1.77
2023-04-14T12:57:58.469Z,1.33
2023-04-14T13:00:28.231Z,1.40
2023-04-14T13:02:56.931Z,1.83
2023-04-14T13:05:25.198Z,2.00
2023-04-14T13:07:52.952Z,1.40
2023-04-14T13:10:21.112Z,1.30
2023-04-14T13:12:48.872Z,1.90
2023-04-14T13:15:31.077Z,1.87
2023-04-14T13:18:06.086Z,1.30
2023-04-14T13:20:33.986Z,1.50
2023-04-14T13:23:02.107Z,1.63
2023-04-14T13:25:29.992Z,1.20
2023-04-14T13:27:57.899Z,2.03
2023-04-14T13:30:27.035Z,1.30
2023-04-14T13:32:57.784Z,1.47
2023-04-14T13:35:25.822Z,1.30
2023-04-14T13:37:53.604Z,1.27
2023-04-14T13:40:21.395Z,1.30
2023-04-14T13:42:49.147Z,1.40
2023-04-14T13:45:17.026Z,1.20
2023-04-14T13:47:49.598Z,1.20
2023-04-14T13:50:17.906Z,1.60
2023-04-14T13:52:45.652Z,1.43
2023-04-14T13:55:13.728Z,1.43
2023-04-14T13:57:41.489Z,1.20
2023-04-14T14:00:10.451Z,1.07
2023-04-14T14:02:39.553Z,1.27
2023-04-14T14:05:10.390Z,1.50
2023-04-14T14:07:39.015Z,1.10
2023-04-14T14:10:10.439Z,1.23
2023-04-14T14:12:38.295Z,1.70
2023-04-14T14:15:07.079Z,1.37
2023-04-14T14:17:34.884Z,1.67
2023-04-14T14:20:02.686Z,1.40
2023-04-14T14:22:31.911Z,1.60
2023-04-14T14:25:14.944Z,1.53
2023-04-14T14:27:46.052Z,1.53
2023-04-14T14:30:14.383Z,1.43
2023-04-14T14:32:42.100Z,1.37
2023-04-14T14:35:10.655Z,2.00
2023-04-14T14:37:40.906Z,1.43
2023-04-14T14:40:10.068Z,1.43
2023-04-14T14:42:38.153Z,1.60
2023-04-14T14:45:06.820Z,1.10
2023-04-14T14:47:34.714Z,1.23
2023-04-14T14:50:06.852Z,1.33
2023-04-14T14:52:35.701Z,1.07
2023-04-14T14:55:05.510Z,1.27
2023-04-14T14:57:33.231Z,1.30
2023-04-14T15:00:00.914Z,1.20
2023-04-14T15:02:28.808Z,1.47
2023-04-14T15:04:56.823Z,1.00
2023-04-14T15:07:24.540Z,1.20
2023-04-14T15:09:52.248Z,1.70
2023-04-14T15:12:21.327Z,1.50
2023-04-14T15:14:49.227Z,1.40
2023-04-14T15:17:17.106Z,1.50
2023-04-14T15:19:45.176Z,2.03
2023-04-14T15:22:13.262Z,1.40
2023-04-14T15:24:41.011Z,1.40
2023-04-14T15:27:08.665Z,1.60
2023-04-14T15:29:37.808Z,1.50
2023-04-14T15:32:05.561Z,1.70
2023-04-14T15:34:33.548Z,1.10
2023-04-14T15:37:01.532Z,1.50
2023-04-14T15:39:29.491Z,1.50
2023-04-14T15:41:57.215Z,1.30
2023-04-14T15:44:26.222Z,1.23
2023-04-14T15:46:55.347Z,1.00
2023-04-14T15:49:23.203Z,1.50
2023-04-14T15:51:51.063Z,1.10
2023-04-14T15:54:18.909Z,1.50
2023-04-14T15:56:46.577Z,1.40
2023-04-14T15:59:14.418Z,1.30
2023-04-14T16:01:42.126Z,1.40
2023-04-14T16:04:11.423Z,1.90
2023-04-14T16:06:40.106Z,1.40
2023-04-14T16:09:07.803Z,1.53
2023-04-14T16:11:36.212Z,1.47
2023-04-14T16:14:04.132Z,1.37
2023-04-14T16:16:32.547Z,1.17
2023-04-14T16:19:00.846Z,1.20
2023-04-14T16:21:30.522Z,1.40
2023-04-14T16:23:58.395Z,1.30
2023-04-14T16:26:26.096Z,1.40
2023-04-14T16:28:53.842Z,1.23
2023-04-14T16:31:21.668Z,1.73
2023-04-14T16:33:49.370Z,1.70
2023-04-14T16:36:17.477Z,1.37
2023-04-14T16:38:46.536Z,2.00
2023-04-14T16:41:14.276Z,1.33
2023-04-14T16:43:42.135Z,1.57
2023-04-14T16:46:14.513Z,1.43
2023-04-14T16:48:42.258Z,1.60
2023-04-14T16:51:11.290Z,1.43
2023-04-14T16:53:40.050Z,1.20
2023-04-14T16:56:11.237Z,1.23
2023-04-14T16:58:39.904Z,1.10
2023-04-14T17:01:07.803Z,1.00
2023-04-14T17:03:36.755Z,1.90
2023-04-14T17:06:05.332Z,1.50
2023-04-14T17:08:33.928Z,1.47
2023-04-14T17:11:02.178Z,1.33
2023-04-14T17:13:31.306Z,1.53
2023-04-14T17:16:08.239Z,1.27
2023-04-14T17:18:36.951Z,1.80
2023-04-14T17:21:05.690Z,1.33
2023-04-14T17:23:36.281Z,1.50
2023-04-14T17:26:04.509Z,1.40
2023-04-14T17:28:34.883Z,1.80
2023-04-14T17:31:03.226Z,1.70
2023-04-14T17:33:30.952Z,1.63
2023-04-14T17:35:59.057Z,1.80
2023-04-14T17:38:27.154Z,2.37
2023-04-14T17:40:55.078Z,1.50
2023-04-14T17:43:23.759Z,2.00
2023-04-14T17:45:53.140Z,4.00
2023-04-14T17:48:21.473Z,3.17
2023-04-14T17:50:49.492Z,3.23
2023-04-14T17:53:17.754Z,3.20
2023-04-14T17:55:45.544Z,3.53
2023-04-14T17:58:13.494Z,2.63
2023-04-14T18:00:41.527Z,2.87
2023-04-14T18:03:16.395Z,2.20
2023-04-14T18:05:44.402Z,2.30
2023-04-14T18:08:12.204Z,2.20
2023-04-14T18:10:40.194Z,1.97
2023-04-14T18:13:09.416Z,1.63
2023-04-14T18:15:40.265Z,1.60
2023-04-14T18:18:08.827Z,1.83
2023-04-14T18:20:38.094Z,1.53
2023-04-14T18:23:06.016Z,2.00
2023-04-14T18:28:04.402Z,3.07
2023-04-14T18:30:32.137Z,3.13
2023-04-14T18:33:00.766Z,2.80
2023-04-14T18:35:29.227Z,2.40
2023-04-14T18:37:58.781Z,2.63
2023-04-14T18:40:27.841Z,2.53
2023-04-14T18:42:57.318Z,2.07
2023-04-14T18:45:25.214Z,2.60
2023-04-14T18:47:52.968Z,2.27
2023-04-14T18:50:21.541Z,2.80
2023-04-14T18:52:49.664Z,2.73
2023-04-14T18:55:19.700Z,2.33
2023-04-14T18:57:48.487Z,3.10
2023-04-14T19:00:16.611Z,2.43
2023-04-14T19:02:44.682Z,2.30
2023-04-14T19:05:12.740Z,2.25
2023-04-14T19:07:40.411Z,2.70
2023-04-14T19:10:09.211Z,2.80
2023-04-14T19:12:40.524Z,3.38
2023-04-14T19:15:09.174Z,2.55
2023-04-14T19:17:36.969Z,2.83
2023-04-14T19:20:05.461Z,3.00
2023-04-14T19:22:33.318Z,3.13
2023-04-14T19:25:01.165Z,2.83
2023-04-14T19:27:28.916Z,3.53
2023-04-14T19:29:58.045Z,2.90
2023-04-14T19:32:26.059Z,2.45
2023-04-14T19:34:53.817Z,2.80
2023-04-14T19:37:21.547Z,3.17
2023-04-14T19:39:49.927Z,3.33
2023-04-14T19:42:17.929Z,4.70
2023-04-14T19:44:46.459Z,5.00
2023-04-14T19:47:15.654Z,4.38
2023-04-14T19:49:43.380Z,3.83
2023-04-14T19:52:11.966Z,3.20
2023-04-14T19:54:39.675Z,3.60
2023-04-14T19:57:08.412Z,4.25
2023-04-14T19:59:36.103Z,3.03
2023-04-14T20:02:05.602Z,2.60
2023-04-14T20:04:34.754Z,2.40
2023-04-14T20:07:03.419Z,2.40
2023-04-14T20:09:31.104Z,5.15
2023-04-14T20:11:58.863Z,5.40
2023-04-14T20:14:27.974Z,5.32
2023-04-14T20:16:56.420Z,3.83
2023-04-14T20:19:24.582Z,4.57
2023-04-14T20:21:53.773Z,4.10
2023-04-14T20:24:21.570Z,3.70
2023-04-14T20:26:49.295Z,3.78
2023-04-14T20:29:17.470Z,3.95
2023-04-14T20:31:45.245Z,3.22
2023-04-14T20:34:13.462Z,3.72
2023-04-14T20:36:41.710Z,4.13
2023-04-14T20:39:10.801Z,3.90
2023-04-14T20:41:38.642Z,4.05
2023-04-14T20:44:06.466Z,3.10
2023-04-14T20:46:35.254Z,2.92
2023-04-14T20:49:03.514Z,3.70
2023-04-14T20:51:32.159Z,3.42
2023-04-14T20:54:01.837Z,3.80
2023-04-14T20:56:31.968Z,3.50
2023-04-14T20:59:00.122Z,3.47
2023-04-14T21:01:28.189Z,3.53
2023-04-14T21:03:56.434Z,3.70
2023-04-14T21:06:24.883Z,4.10
2023-04-14T21:08:52.596Z,3.95
2023-04-14T21:11:20.442Z,3.85
2023-04-14T21:15:28.406Z,4.53
2023-04-14T21:16:37.302Z,3.80
2023-04-14T21:19:05.922Z,3.90
2023-04-14T21:21:34.258Z,3.92
2023-04-14T21:24:03.306Z,4.35
2023-04-14T21:26:31.064Z,4.40
2023-04-14T21:29:00.397Z,4.50
2023-04-14T21:31:28.557Z,4.05
2023-04-14T21:33:56.808Z,4.05
2023-04-14T21:36:24.573Z,4.50
2023-04-14T21:38:52.452Z,4.85
2023-04-14T21:41:21.107Z,4.50
2023-04-14T21:43:48.921Z,4.65
2023-04-14T21:46:18.176Z,4.70
2023-04-14T21:48:46.098Z,4.30
2023-04-14T21:51:14.077Z,6.20
2023-04-14T21:53:42.009Z,4.53
2023-04-14T21:56:11.082Z,4.25
2023-04-14T21:58:39.349Z,4.13
2023-04-14T22:01:07.869Z,4.03
2023-04-14T22:03:37.982Z,2.95
2023-04-14T22:06:06.529Z,3.95
2023-04-14T22:08:34.380Z,3.90
2023-04-14T22:11:02.055Z,4.30
2023-04-14T22:13:29.785Z,4.35
2023-04-14T22:15:58.128Z,4.15
2023-04-14T22:18:25.895Z,3.58
2023-04-14T22:20:55.746Z,3.60
2023-04-14T22:23:23.532Z,4.63
2023-04-14T22:25:51.546Z,4.45
2023-04-14T22:28:19.338Z,4.43
2023-04-14T22:30:47.144Z,4.10
2023-04-14T22:33:14.982Z,3.95
2023-04-14T22:35:42.843Z,3.95
2023-04-14T22:38:12.152Z,3.83
2023-04-14T22:40:39.983Z,3.35
2023-04-14T22:43:09.504Z,4.30
2023-04-14T22:45:38.140Z,3.90
2023-04-14T22:48:06.803Z,3.80
2023-04-14T22:50:34.762Z,3.78
2023-04-14T22:53:02.621Z,3.85
2023-04-14T22:55:32.188Z,4.10
2023-04-14T22:58:00.104Z,3.55
2023-04-14T23:00:27.868Z,4.60
2023-04-14T23:02:56.399Z,3.95
2023-04-14T23:05:24.382Z,4.53
2023-04-14T23:07:52.734Z,4.45
2023-04-14T23:10:20.507Z,4.00
2023-04-14T23:12:49.543Z,4.10
2023-04-14T23:15:17.415Z,4.30
2023-04-14T23:17:45.182Z,4.07
2023-04-14T23:20:13.852Z,4.45
2023-04-14T23:22:41.725Z,4.20
2023-04-14T23:25:10.674Z,4.28
2023-04-14T23:27:38.398Z,4.90
2023-04-14T23:30:08.851Z,6.20
2023-04-14T23:32:36.851Z,4.53
2023-04-14T23:35:04.922Z,4.25
2023-04-14T23:37:32.636Z,4.20
2023-04-14T23:40:00.659Z,5.03
2023-04-14T23:42:28.819Z,4.05
2023-04-14T23:44:56.740Z,3.90
2023-04-14T23:47:26.164Z,3.83
2023-04-14T23:49:53.948Z,4.10
2023-04-14T23:52:22.064Z,3.90
2023-04-14T23:54:49.950Z,3.72
2023-04-14T23:57:17.960Z,3.70
2023-04-14T23:59:45.871Z,4.38
